Terminal Aerodrome Forecast
Issued by NWS

Home | Current Version | Previous Version | Text Only | Print | Product List | Glossary On
Versions: 1 2 3 4 5 6 7 8 9 10 11 12 13 14 15 16 17 18 19 20 21 22 23
000
FTUS45 KGJT 191739
TAFASE
TAF
KASE 191739Z 1918/2018 18007G16KT P6SM FEW200
     FM200000 18011G20KT P6SM VCSH BKN090 BKN100
     FM200400 15007KT P6SM VCSH BKN070 OVC080 WS020/17040KT
     FM200700 15007KT 6SM -SHRA BKN060 OVC090 WS020/17045KT
     FM200900 13005KT 6SM -SHRASN BKN030 OVC040 WS020/18025KT
     FM201600 32004KT 6SM -SHRASN BKN025 OVC030=

USA.gov is the U.S. government's official web portal to all federal, state and local government web resources and services.